sensor_id;sensor_type;location;lat;lon;timestamp;P1;durP1;ratioP1;P2;durP2;ratioP2
17741;SDS011;8993;51.822;-2.268;2023-04-01T00:02:49;2.33;;;0.91;;
17741;SDS011;8993;51.822;-2.268;2023-04-01T00:07:53;2.47;;;0.81;;
17741;SDS011;8993;51.822;-2.268;2023-04-01T00:12:57;1.67;;;0.87;;
17741;SDS011;8993;51.822;-2.268;2023-04-01T00:18:02;2.97;;;0.83;;
17741;SDS011;8993;51.822;-2.268;2023-04-01T00:23:05;1.73;;;0.62;;
17741;SDS011;8993;51.822;-2.268;2023-04-01T00:28:09;2.39;;;0.70;;
17741;SDS011;8993;51.822;-2.268;2023-04-01T00:33:13;1.87;;;0.58;;
17741;SDS011;8993;51.822;-2.268;2023-04-01T00:38:18;2.62;;;0.54;;
17741;SDS011;8993;51.822;-2.268;2023-04-01T00:43:22;1.49;;;0.48;;
17741;SDS011;8993;51.822;-2.268;2023-04-01T00:53:26;0.93;;;0.52;;
17741;SDS011;8993;51.822;-2.268;2023-04-01T00:58:31;1.12;;;0.48;;
17741;SDS011;8993;51.822;-2.268;2023-04-01T01:03:35;0.56;;;0.37;;
17741;SDS011;8993;51.822;-2.268;2023-04-01T01:08:45;1.06;;;0.48;;
17741;SDS011;8993;51.822;-2.268;2023-04-01T01:13:45;1.46;;;0.56;;
17741;SDS011;8993;51.822;-2.268;2023-04-01T01:18:49;0.87;;;0.55;;
17741;SDS011;8993;51.822;-2.268;2023-04-01T01:28:59;2.15;;;0.58;;
17741;SDS011;8993;51.822;-2.268;2023-04-01T01:34:04;2.36;;;0.65;;
17741;SDS011;8993;51.822;-2.268;2023-04-01T01:39:07;1.62;;;0.68;;
17741;SDS011;8993;51.822;-2.268;2023-04-01T01:44:13;3.05;;;0.83;;
17741;SDS011;8993;51.822;-2.268;2023-04-01T01:49:15;1.82;;;0.77;;
17741;SDS011;8993;51.822;-2.268;2023-04-01T01:54:19;2.07;;;0.84;;
17741;SDS011;8993;51.822;-2.268;2023-04-01T01:59:23;3.34;;;1.06;;
17741;SDS011;8993;51.822;-2.268;2023-04-01T02:04:27;1.71;;;0.72;;
17741;SDS011;8993;51.822;-2.268;2023-04-01T02:09:31;1.87;;;0.69;;
17741;SDS011;8993;51.822;-2.268;2023-04-01T02:14:37;1.33;;;0.56;;
17741;SDS011;8993;51.822;-2.268;2023-04-01T02:19:39;1.56;;;0.69;;
17741;SDS011;8993;51.822;-2.268;2023-04-01T02:24:43;2.28;;;0.92;;
17741;SDS011;8993;51.822;-2.268;2023-04-01T02:29:47;2.86;;;0.92;;
17741;SDS011;8993;51.822;-2.268;2023-04-01T02:34:51;1.84;;;0.75;;
17741;SDS011;8993;51.822;-2.268;2023-04-01T02:39:58;1.46;;;0.83;;
17741;SDS011;8993;51.822;-2.268;2023-04-01T02:44:59;2.68;;;1.26;;
17741;SDS011;8993;51.822;-2.268;2023-04-01T02:50:03;2.57;;;1.35;;
17741;SDS011;8993;51.822;-2.268;2023-04-01T02:55:07;3.83;;;1.61;;
17741;SDS011;8993;51.822;-2.268;2023-04-01T03:00:11;2.23;;;1.19;;
17741;SDS011;8993;51.822;-2.268;2023-04-01T03:05:15;3.63;;;1.27;;
17741;SDS011;8993;51.822;-2.268;2023-04-01T03:10:19;3.19;;;1.24;;
17741;SDS011;8993;51.822;-2.268;2023-04-01T03:15:23;2.87;;;1.23;;
17741;SDS011;8993;51.822;-2.268;2023-04-01T03:20:27;3.89;;;1.38;;
17741;SDS011;8993;51.822;-2.268;2023-04-01T03:25:33;3.64;;;1.45;;
17741;SDS011;8993;51.822;-2.268;2023-04-01T03:30:37;2.85;;;1.31;;
17741;SDS011;8993;51.822;-2.268;2023-04-01T03:35:41;3.63;;;1.60;;
17741;SDS011;8993;51.822;-2.268;2023-04-01T03:40:45;4.19;;;1.77;;
17741;SDS011;8993;51.822;-2.268;2023-04-01T03:45:49;5.08;;;1.96;;
17741;SDS011;8993;51.822;-2.268;2023-04-01T03:50:55;4.59;;;1.86;;
17741;SDS011;8993;51.822;-2.268;2023-04-01T03:56:03;5.26;;;2.74;;
17741;SDS011;8993;51.822;-2.268;2023-04-01T04:01:03;6.12;;;2.77;;
17741;SDS011;8993;51.822;-2.268;2023-04-01T04:06:10;4.94;;;2.25;;
17741;SDS011;8993;51.822;-2.268;2023-04-01T04:11:11;5.59;;;2.34;;
17741;SDS011;8993;51.822;-2.268;2023-04-01T04:16:16;5.44;;;2.62;;
17741;SDS011;8993;51.822;-2.268;2023-04-01T04:21:19;5.54;;;2.24;;
17741;SDS011;8993;51.822;-2.268;2023-04-01T04:26:23;3.84;;;1.78;;
17741;SDS011;8993;51.822;-2.268;2023-04-01T04:31:28;7.16;;;3.08;;
17741;SDS011;8993;51.822;-2.268;2023-04-01T04:36:32;8.09;;;3.40;;
17741;SDS011;8993;51.822;-2.268;2023-04-01T04:41:36;6.93;;;2.84;;
17741;SDS011;8993;51.822;-2.268;2023-04-01T04:46:40;8.36;;;4.31;;
17741;SDS011;8993;51.822;-2.268;2023-04-01T04:51:44;7.90;;;3.63;;
17741;SDS011;8993;51.822;-2.268;2023-04-01T04:56:48;17.01;;;7.68;;
17741;SDS011;8993;51.822;-2.268;2023-04-01T05:01:52;23.09;;;11.23;;
17741;SDS011;8993;51.822;-2.268;2023-04-01T05:06:56;27.58;;;13.08;;
17741;SDS011;8993;51.822;-2.268;2023-04-01T05:12:00;23.10;;;12.05;;
17741;SDS011;8993;51.822;-2.268;2023-04-01T05:17:05;25.11;;;12.68;;
17741;SDS011;8993;51.822;-2.268;2023-04-01T05:22:08;34.96;;;16.60;;
17741;SDS011;8993;51.822;-2.268;2023-04-01T05:27:12;32.66;;;16.48;;
17741;SDS011;8993;51.822;-2.268;2023-04-01T05:32:17;41.70;;;21.04;;
17741;SDS011;8993;51.822;-2.268;2023-04-01T05:37:23;49.19;;;23.10;;
17741;SDS011;8993;51.822;-2.268;2023-04-01T05:42:27;48.94;;;23.25;;
17741;SDS011;8993;51.822;-2.268;2023-04-01T05:47:31;62.44;;;27.81;;
17741;SDS011;8993;51.822;-2.268;2023-04-01T05:52:35;64.26;;;28.84;;
17741;SDS011;8993;51.822;-2.268;2023-04-01T05:57:39;65.75;;;30.46;;
17741;SDS011;8993;51.822;-2.268;2023-04-01T06:02:46;62.32;;;30.07;;
17741;SDS011;8993;51.822;-2.268;2023-04-01T06:07:50;80.26;;;34.37;;
17741;SDS011;8993;51.822;-2.268;2023-04-01T06:12:57;75.37;;;33.30;;
17741;SDS011;8993;51.822;-2.268;2023-04-01T06:18:02;78.15;;;33.03;;
17741;SDS011;8993;51.822;-2.268;2023-04-01T06:23:06;74.88;;;32.64;;
17741;SDS011;8993;51.822;-2.268;2023-04-01T06:28:14;78.75;;;33.24;;
17741;SDS011;8993;51.822;-2.268;2023-04-01T06:33:18;47.19;;;22.75;;
17741;SDS011;8993;51.822;-2.268;2023-04-01T06:38:18;32.61;;;16.83;;
17741;SDS011;8993;51.822;-2.268;2023-04-01T06:43:21;34.24;;;17.11;;
17741;SDS011;8993;51.822;-2.268;2023-04-01T06:48:32;43.09;;;18.19;;
17741;SDS011;8993;51.822;-2.268;2023-04-01T06:53:30;40.70;;;18.01;;
17741;SDS011;8993;51.822;-2.268;2023-04-01T06:58:34;40.05;;;18.35;;
17741;SDS011;8993;51.822;-2.268;2023-04-01T07:03:41;44.13;;;18.18;;
17741;SDS011;8993;51.822;-2.268;2023-04-01T07:08:44;41.56;;;18.64;;
17741;SDS011;8993;51.822;-2.268;2023-04-01T07:13:49;42.76;;;18.99;;
17741;SDS011;8993;51.822;-2.268;2023-04-01T07:24:00;40.16;;;17.74;;
17741;SDS011;8993;51.822;-2.268;2023-04-01T07:29:04;39.09;;;17.04;;
17741;SDS011;8993;51.822;-2.268;2023-04-01T07:34:09;30.41;;;15.28;;
17741;SDS011;8993;51.822;-2.268;2023-04-01T07:39:16;29.91;;;14.52;;
17741;SDS011;8993;51.822;-2.268;2023-04-01T07:44:18;31.59;;;15.19;;
17741;SDS011;8993;51.822;-2.268;2023-04-01T07:49:22;31.99;;;16.19;;
17741;SDS011;8993;51.822;-2.268;2023-04-01T07:54:28;34.59;;;16.54;;
17741;SDS011;8993;51.822;-2.268;2023-04-01T07:59:30;36.12;;;17.02;;
17741;SDS011;8993;51.822;-2.268;2023-04-01T08:04:38;35.84;;;17.51;;
17741;SDS011;8993;51.822;-2.268;2023-04-01T08:09:43;39.02;;;18.88;;
17741;SDS011;8993;51.822;-2.268;2023-04-01T08:14:46;38.28;;;19.88;;
17741;SDS011;8993;51.822;-2.268;2023-04-01T08:19:52;40.47;;;20.29;;
17741;SDS011;8993;51.822;-2.268;2023-04-01T08:24:52;36.93;;;19.73;;
17741;SDS011;8993;51.822;-2.268;2023-04-01T08:29:58;39.75;;;20.24;;
17741;SDS011;8993;51.822;-2.268;2023-04-01T08:35:07;36.84;;;19.89;;
17741;SDS011;8993;51.822;-2.268;2023-04-01T08:40:14;35.20;;;19.78;;
17741;SDS011;8993;51.822;-2.268;2023-04-01T08:45:15;36.18;;;19.71;;
17741;SDS011;8993;51.822;-2.268;2023-04-01T08:50:22;35.81;;;19.74;;
17741;SDS011;8993;51.822;-2.268;2023-04-01T09:00:25;37.61;;;20.09;;
17741;SDS011;8993;51.822;-2.268;2023-04-01T09:05:34;34.07;;;19.63;;
17741;SDS011;8993;51.822;-2.268;2023-04-01T09:10:37;36.21;;;20.37;;
17741;SDS011;8993;51.822;-2.268;2023-04-01T09:20:44;32.47;;;18.37;;
17741;SDS011;8993;51.822;-2.268;2023-04-01T09:25:53;28.75;;;17.69;;
17741;SDS011;8993;51.822;-2.268;2023-04-01T09:31:00;28.54;;;17.02;;
17741;SDS011;8993;51.822;-2.268;2023-04-01T09:36:03;33.10;;;18.96;;
17741;SDS011;8993;51.822;-2.268;2023-04-01T09:41:06;31.72;;;18.70;;
17741;SDS011;8993;51.822;-2.268;2023-04-01T09:46:11;33.95;;;18.85;;
17741;SDS011;8993;51.822;-2.268;2023-04-01T09:51:16;32.95;;;18.61;;
17741;SDS011;8993;51.822;-2.268;2023-04-01T09:56:22;33.85;;;18.85;;
17741;SDS011;8993;51.822;-2.268;2023-04-01T10:01:27;33.53;;;19.34;;
17741;SDS011;8993;51.822;-2.268;2023-04-01T10:11:39;30.45;;;17.41;;
17741;SDS011;8993;51.822;-2.268;2023-04-01T10:21:56;34.18;;;19.80;;
17741;SDS011;8993;51.822;-2.268;2023-04-01T10:26:48;32.25;;;18.15;;
17741;SDS011;8993;51.822;-2.268;2023-04-01T10:32:34;29.20;;;17.56;;
17741;SDS011;8993;51.822;-2.268;2023-04-01T10:36:53;30.34;;;16.94;;
17741;SDS011;8993;51.822;-2.268;2023-04-01T10:42:02;27.92;;;16.24;;
17741;SDS011;8993;51.822;-2.268;2023-04-01T10:47:11;25.79;;;15.98;;
17741;SDS011;8993;51.822;-2.268;2023-04-01T10:57:14;28.27;;;16.28;;
17741;SDS011;8993;51.822;-2.268;2023-04-01T11:02:22;23.32;;;13.64;;
17741;SDS011;8993;51.822;-2.268;2023-04-01T11:07:26;23.85;;;13.94;;
17741;SDS011;8993;51.822;-2.268;2023-04-01T11:12:30;21.43;;;11.93;;
17741;SDS011;8993;51.822;-2.268;2023-04-01T11:17:36;18.30;;;11.16;;
17741;SDS011;8993;51.822;-2.268;2023-04-01T11:22:36;18.33;;;11.12;;
17741;SDS011;8993;51.822;-2.268;2023-04-01T11:27:41;16.04;;;9.96;;
17741;SDS011;8993;51.822;-2.268;2023-04-01T11:32:43;17.20;;;10.09;;
17741;SDS011;8993;51.822;-2.268;2023-04-01T11:37:46;15.04;;;9.15;;
17741;SDS011;8993;51.822;-2.268;2023-04-01T11:42:51;14.71;;;8.84;;
17741;SDS011;8993;51.822;-2.268;2023-04-01T11:47:58;14.71;;;9.05;;
17741;SDS011;8993;51.822;-2.268;2023-04-01T11:53:01;13.21;;;7.85;;
17741;SDS011;8993;51.822;-2.268;2023-04-01T11:58:10;12.04;;;6.77;;
17741;SDS011;8993;51.822;-2.268;2023-04-01T12:03:12;11.99;;;6.33;;
17741;SDS011;8993;51.822;-2.268;2023-04-01T12:08:14;10.28;;;5.09;;
17741;SDS011;8993;51.822;-2.268;2023-04-01T12:13:18;8.87;;;5.44;;
17741;SDS011;8993;51.822;-2.268;2023-04-01T12:18:20;8.45;;;4.59;;
17741;SDS011;8993;51.822;-2.268;2023-04-01T12:23:29;7.26;;;4.33;;
17741;SDS011;8993;51.822;-2.268;2023-04-01T12:28:30;7.75;;;3.99;;
17741;SDS011;8993;51.822;-2.268;2023-04-01T12:33:37;10.26;;;5.47;;
17741;SDS011;8993;51.822;-2.268;2023-04-01T12:38:40;8.22;;;4.19;;
17741;SDS011;8993;51.822;-2.268;2023-04-01T12:49:00;24.99;;;12.59;;
17741;SDS011;8993;51.822;-2.268;2023-04-01T12:53:59;30.89;;;12.99;;
17741;SDS011;8993;51.822;-2.268;2023-04-01T12:58:59;18.61;;;8.28;;
17741;SDS011;8993;51.822;-2.268;2023-04-01T13:04:13;14.55;;;7.28;;
17741;SDS011;8993;51.822;-2.268;2023-04-01T13:09:07;6.16;;;3.60;;
17741;SDS011;8993;51.822;-2.268;2023-04-01T13:14:13;14.03;;;7.10;;
17741;SDS011;8993;51.822;-2.268;2023-04-01T13:19:13;11.26;;;6.19;;
17741;SDS011;8993;51.822;-2.268;2023-04-01T13:24:21;8.87;;;4.75;;
17741;SDS011;8993;51.822;-2.268;2023-04-01T13:29:21;8.74;;;4.04;;
17741;SDS011;8993;51.822;-2.268;2023-04-01T13:34:28;7.02;;;4.14;;
17741;SDS011;8993;51.822;-2.268;2023-04-01T13:39:36;7.13;;;3.75;;
17741;SDS011;8993;51.822;-2.268;2023-04-01T13:44:34;7.53;;;4.15;;
17741;SDS011;8993;51.822;-2.268;2023-04-01T13:49:41;8.13;;;4.29;;
17741;SDS011;8993;51.822;-2.268;2023-04-01T13:54:46;7.47;;;4.25;;
17741;SDS011;8993;51.822;-2.268;2023-04-01T13:59:56;8.41;;;4.79;;
17741;SDS011;8993;51.822;-2.268;2023-04-01T14:04:53;9.69;;;5.04;;
17741;SDS011;8993;51.822;-2.268;2023-04-01T14:09:59;9.31;;;5.22;;
17741;SDS011;8993;51.822;-2.268;2023-04-01T14:15:06;9.16;;;5.03;;
17741;SDS011;8993;51.822;-2.268;2023-04-01T14:20:14;8.20;;;4.12;;
17741;SDS011;8993;51.822;-2.268;2023-04-01T14:30:16;8.37;;;4.49;;
17741;SDS011;8993;51.822;-2.268;2023-04-01T14:35:21;7.78;;;4.08;;
17741;SDS011;8993;51.822;-2.268;2023-04-01T14:40:26;6.84;;;3.81;;
17741;SDS011;8993;51.822;-2.268;2023-04-01T14:45:30;3.88;;;1.82;;
17741;SDS011;8993;51.822;-2.268;2023-04-01T14:50:40;4.84;;;1.65;;
17741;SDS011;8993;51.822;-2.268;2023-04-01T14:55:36;4.28;;;1.38;;
17741;SDS011;8993;51.822;-2.268;2023-04-01T15:00:48;4.71;;;1.46;;
17741;SDS011;8993;51.822;-2.268;2023-04-01T15:05:45;2.35;;;1.09;;
17741;SDS011;8993;51.822;-2.268;2023-04-01T15:10:52;2.79;;;0.74;;
17741;SDS011;8993;51.822;-2.268;2023-04-01T15:15:58;2.13;;;0.84;;
17741;SDS011;8993;51.822;-2.268;2023-04-01T15:21:03;2.23;;;0.83;;
17741;SDS011;8993;51.822;-2.268;2023-04-01T15:26:07;3.17;;;0.82;;
17741;SDS011;8993;51.822;-2.268;2023-04-01T15:31:07;2.12;;;1.29;;
17741;SDS011;8993;51.822;-2.268;2023-04-01T15:36:16;3.04;;;1.64;;
17741;SDS011;8993;51.822;-2.268;2023-04-01T15:41:19;2.98;;;1.62;;
17741;SDS011;8993;51.822;-2.268;2023-04-01T15:46:24;2.45;;;1.79;;
17741;SDS011;8993;51.822;-2.268;2023-04-01T15:51:29;5.98;;;2.49;;
17741;SDS011;8993;51.822;-2.268;2023-04-01T15:56:37;2.71;;;2.14;;
17741;SDS011;8993;51.822;-2.268;2023-04-01T16:01:36;3.70;;;1.89;;
17741;SDS011;8993;51.822;-2.268;2023-04-01T16:06:49;2.86;;;1.37;;
17741;SDS011;8993;51.822;-2.268;2023-04-01T16:11:45;2.19;;;1.43;;
17741;SDS011;8993;51.822;-2.268;2023-04-01T16:16:52;2.79;;;1.38;;
17741;SDS011;8993;51.822;-2.268;2023-04-01T16:21:53;2.33;;;1.26;;
17741;SDS011;8993;51.822;-2.268;2023-04-01T16:27:02;3.80;;;1.56;;
17741;SDS011;8993;51.822;-2.268;2023-04-01T16:32:15;4.10;;;1.57;;
17741;SDS011;8993;51.822;-2.268;2023-04-01T16:37:15;2.78;;;1.46;;
17741;SDS011;8993;51.822;-2.268;2023-04-01T16:42:24;2.48;;;1.26;;
17741;SDS011;8993;51.822;-2.268;2023-04-01T16:47:24;3.01;;;1.48;;
17741;SDS011;8993;51.822;-2.268;2023-04-01T16:52:30;3.87;;;1.65;;
17741;SDS011;8993;51.822;-2.268;2023-04-01T16:57:36;3.30;;;1.06;;
17741;SDS011;8993;51.822;-2.268;2023-04-01T17:02:43;2.93;;;1.01;;
17741;SDS011;8993;51.822;-2.268;2023-04-01T17:07:47;3.54;;;1.11;;
17741;SDS011;8993;51.822;-2.268;2023-04-01T17:12:50;3.48;;;1.27;;
17741;SDS011;8993;51.822;-2.268;2023-04-01T17:17:54;2.85;;;1.13;;
17741;SDS011;8993;51.822;-2.268;2023-04-01T17:23:01;3.75;;;1.14;;
17741;SDS011;8993;51.822;-2.268;2023-04-01T17:28:08;2.86;;;1.10;;
17741;SDS011;8993;51.822;-2.268;2023-04-01T17:33:15;1.83;;;0.92;;
17741;SDS011;8993;51.822;-2.268;2023-04-01T17:38:17;6.67;;;2.67;;
17741;SDS011;8993;51.822;-2.268;2023-04-01T17:43:22;4.19;;;2.06;;
17741;SDS011;8993;51.822;-2.268;2023-04-01T17:48:30;2.53;;;1.17;;
17741;SDS011;8993;51.822;-2.268;2023-04-01T17:53:34;3.85;;;1.07;;
17741;SDS011;8993;51.822;-2.268;2023-04-01T17:58:39;2.88;;;1.35;;
17741;SDS011;8993;51.822;-2.268;2023-04-01T18:03:46;2.59;;;1.04;;
17741;SDS011;8993;51.822;-2.268;2023-04-01T18:08:50;3.83;;;1.74;;
17741;SDS011;8993;51.822;-2.268;2023-04-01T18:13:54;4.03;;;1.12;;
17741;SDS011;8993;51.822;-2.268;2023-04-01T18:18:57;3.74;;;1.27;;
17741;SDS011;8993;51.822;-2.268;2023-04-01T18:24:00;2.89;;;1.21;;
17741;SDS011;8993;51.822;-2.268;2023-04-01T18:29:11;3.58;;;0.88;;
17741;SDS011;8993;51.822;-2.268;2023-04-01T18:34:12;2.09;;;0.89;;
17741;SDS011;8993;51.822;-2.268;2023-04-01T18:39:15;3.39;;;0.92;;
17741;SDS011;8993;51.822;-2.268;2023-04-01T18:44:30;2.83;;;0.83;;
17741;SDS011;8993;51.822;-2.268;2023-04-01T18:49:27;2.76;;;0.91;;
17741;SDS011;8993;51.822;-2.268;2023-04-01T18:54:30;4.05;;;1.13;;
17741;SDS011;8993;51.822;-2.268;2023-04-01T18:59:40;2.19;;;0.79;;
17741;SDS011;8993;51.822;-2.268;2023-04-01T19:04:47;2.40;;;0.93;;
17741;SDS011;8993;51.822;-2.268;2023-04-01T19:10:00;4.84;;;1.47;;
17741;SDS011;8993;51.822;-2.268;2023-04-01T19:14:53;2.42;;;1.03;;
17741;SDS011;8993;51.822;-2.268;2023-04-01T19:20:03;3.93;;;1.42;;
17741;SDS011;8993;51.822;-2.268;2023-04-01T19:25:13;3.39;;;0.97;;
17741;SDS011;8993;51.822;-2.268;2023-04-01T19:30:17;2.63;;;0.97;;
17741;SDS011;8993;51.822;-2.268;2023-04-01T19:35:24;2.79;;;1.08;;
17741;SDS011;8993;51.822;-2.268;2023-04-01T19:45:31;2.36;;;0.97;;
17741;SDS011;8993;51.822;-2.268;2023-04-01T19:50:33;3.77;;;1.05;;
17741;SDS011;8993;51.822;-2.268;2023-04-01T19:55:37;3.92;;;1.26;;
17741;SDS011;8993;51.822;-2.268;2023-04-01T20:00:43;2.08;;;0.94;;
17741;SDS011;8993;51.822;-2.268;2023-04-01T20:05:55;3.14;;;0.81;;
17741;SDS011;8993;51.822;-2.268;2023-04-01T20:10:58;2.68;;;0.91;;
17741;SDS011;8993;51.822;-2.268;2023-04-01T20:16:02;3.41;;;1.28;;
17741;SDS011;8993;51.822;-2.268;2023-04-01T20:21:09;3.36;;;1.42;;
17741;SDS011;8993;51.822;-2.268;2023-04-01T20:26:12;5.11;;;1.80;;
17741;SDS011;8993;51.822;-2.268;2023-04-01T20:31:27;5.52;;;2.15;;
17741;SDS011;8993;51.822;-2.268;2023-04-01T20:36:24;4.92;;;1.98;;
17741;SDS011;8993;51.822;-2.268;2023-04-01T20:41:30;3.66;;;1.95;;
17741;SDS011;8993;51.822;-2.268;2023-04-01T20:46:36;3.81;;;1.58;;
17741;SDS011;8993;51.822;-2.268;2023-04-01T20:51:38;3.10;;;1.62;;
17741;SDS011;8993;51.822;-2.268;2023-04-01T20:56:46;4.49;;;1.77;;
17741;SDS011;8993;51.822;-2.268;2023-04-01T21:01:49;3.29;;;1.64;;
17741;SDS011;8993;51.822;-2.268;2023-04-01T21:06:56;3.87;;;1.59;;
17741;SDS011;8993;51.822;-2.268;2023-04-01T21:11:59;3.16;;;1.54;;
17741;SDS011;8993;51.822;-2.268;2023-04-01T21:17:05;3.73;;;1.41;;
17741;SDS011;8993;51.822;-2.268;2023-04-01T21:22:12;4.23;;;1.87;;
17741;SDS011;8993;51.822;-2.268;2023-04-01T21:27:12;4.49;;;1.72;;
17741;SDS011;8993;51.822;-2.268;2023-04-01T21:32:25;4.27;;;1.75;;
17741;SDS011;8993;51.822;-2.268;2023-04-01T21:37:23;5.66;;;1.99;;
17741;SDS011;8993;51.822;-2.268;2023-04-01T21:42:24;5.03;;;2.03;;
17741;SDS011;8993;51.822;-2.268;2023-04-01T21:47:34;5.42;;;2.02;;
17741;SDS011;8993;51.822;-2.268;2023-04-01T21:52:37;4.30;;;2.17;;
17741;SDS011;8993;51.822;-2.268;2023-04-01T21:57:48;5.84;;;2.43;;
17741;SDS011;8993;51.822;-2.268;2023-04-01T22:02:54;4.46;;;2.06;;
17741;SDS011;8993;51.822;-2.268;2023-04-01T22:07:49;5.00;;;1.84;;
17741;SDS011;8993;51.822;-2.268;2023-04-01T22:12:52;3.39;;;1.54;;
17741;SDS011;8993;51.822;-2.268;2023-04-01T22:17:57;4.76;;;1.65;;
17741;SDS011;8993;51.822;-2.268;2023-04-01T22:23:07;4.22;;;1.68;;
17741;SDS011;8993;51.822;-2.268;2023-04-01T22:28:07;6.66;;;1.92;;
17741;SDS011;8993;51.822;-2.268;2023-04-01T22:33:12;6.06;;;2.14;;
17741;SDS011;8993;51.822;-2.268;2023-04-01T22:38:19;5.39;;;1.78;;
17741;SDS011;8993;51.822;-2.268;2023-04-01T22:43:22;6.48;;;2.18;;
17741;SDS011;8993;51.822;-2.268;2023-04-01T22:48:25;6.79;;;2.05;;
17741;SDS011;8993;51.822;-2.268;2023-04-01T22:53:36;6.76;;;2.24;;
17741;SDS011;8993;51.822;-2.268;2023-04-01T22:58:37;6.73;;;2.23;;
17741;SDS011;8993;51.822;-2.268;2023-04-01T23:03:41;7.22;;;2.53;;
17741;SDS011;8993;51.822;-2.268;2023-04-01T23:08:58;5.77;;;2.68;;
17741;SDS011;8993;51.822;-2.268;2023-04-01T23:13:51;8.89;;;3.87;;
17741;SDS011;8993;51.822;-2.268;2023-04-01T23:18:56;6.20;;;2.71;;
17741;SDS011;8993;51.822;-2.268;2023-04-01T23:24:01;7.94;;;3.25;;
17741;SDS011;8993;51.822;-2.268;2023-04-01T23:29:04;9.76;;;3.80;;
17741;SDS011;8993;51.822;-2.268;2023-04-01T23:34:28;9.39;;;3.90;;
17741;SDS011;8993;51.822;-2.268;2023-04-01T23:39:17;11.50;;;4.27;;
17741;SDS011;8993;51.822;-2.268;2023-04-01T23:44:18;9.17;;;4.20;;
17741;SDS011;8993;51.822;-2.268;2023-04-01T23:49:30;11.05;;;4.20;;
17741;SDS011;8993;51.822;-2.268;2023-04-01T23:54:34;9.25;;;4.18;;
17741;SDS011;8993;51.822;-2.268;2023-04-01T23:59:37;10.69;;;4.46;;
